CYWY

Details ICAO CYWY (YWY)
Name WRIGLEY
Region Canada
Timezone America/Yellowknife (UTC-7.0)
Plans Departing 2
Arriving 2
Stats Elevation 489 ft / 149 m (AMSL)
Location 63.209443° -123.436668°
Runways 1
Magnetic Variation 20.045° E
Sunrise 2017-12-13 17:47:04 UTC / 2017-12-13 10:47:04 Local
Sunset 2017-12-13 22:31:59 UTC / 2017-12-13 15:31:59 Local
Advertisement - Login to hide

Runways

ID Width Length Bearing (true) Bearing (mag) Surface Threshold Offset Overrun Length
10 100 ft / 30 m 3,490 ft / 1,064 m 131.40° 111.36° Gravel 500 ft / 152 m 0 ft / 0 m
28 100 ft / 30 m 3,490 ft / 1,064 m 311.41° 291.37° Gravel 0 ft / 0 m 0 ft / 0 m

Map

Weather


0- 5 10 15 20 25 30 35+ Temperature / ° C

Clouds and Precipitation
Forecast for 2017-12-14 00:00 UTC. Updated 2 hours ago

Ground ~20,000 ft ~40,000 ft Winds

METAR

CYWY 132300Z VRB02KT 15SM SCT250 M17/M19 A3025 RMK CI4 -11.9/-17.3/0/27 LAST OBS/NXT 141500Z SLP262

TAF

Not found

Frequencies

Unicom 122.10 MHz MANDATORY FREQ
Warning: Do not use this data for real-world aviation or navigation. No guarantee of current accuracy is given.